sensor_id;sensor_type;location;lat;lon;timestamp;P1;durP1;ratioP1;P2;durP2;ratioP2
19879;SDS011;10102;50.828;4.416;2023-07-13T00:00:34;7.82;;;2.10;;
19879;SDS011;10102;50.828;4.416;2023-07-13T00:03:01;9.25;;;2.53;;
19879;SDS011;10102;50.828;4.416;2023-07-13T00:05:27;11.30;;;2.25;;
19879;SDS011;10102;50.828;4.416;2023-07-13T00:07:54;9.25;;;2.15;;
19879;SDS011;10102;50.828;4.416;2023-07-13T00:10:20;13.63;;;2.13;;
19879;SDS011;10102;50.828;4.416;2023-07-13T00:12:47;6.05;;;1.98;;
19879;SDS011;10102;50.828;4.416;2023-07-13T00:15:18;11.00;;;2.30;;
19879;SDS011;10102;50.828;4.416;2023-07-13T00:17:48;7.90;;;1.85;;
19879;SDS011;10102;50.828;4.416;2023-07-13T00:20:18;7.53;;;1.50;;
19879;SDS011;10102;50.828;4.416;2023-07-13T00:22:46;8.02;;;2.10;;
19879;SDS011;10102;50.828;4.416;2023-07-13T00:25:12;12.20;;;2.47;;
19879;SDS011;10102;50.828;4.416;2023-07-13T00:27:38;9.52;;;2.13;;
19879;SDS011;10102;50.828;4.416;2023-07-13T00:30:04;9.43;;;2.00;;
19879;SDS011;10102;50.828;4.416;2023-07-13T00:32:30;9.40;;;2.08;;
19879;SDS011;10102;50.828;4.416;2023-07-13T00:34:56;4.60;;;1.88;;
19879;SDS011;10102;50.828;4.416;2023-07-13T00:37:23;9.32;;;2.15;;
19879;SDS011;10102;50.828;4.416;2023-07-13T00:39:49;11.05;;;2.10;;
19879;SDS011;10102;50.828;4.416;2023-07-13T00:42:14;6.15;;;2.15;;
19879;SDS011;10102;50.828;4.416;2023-07-13T00:44:40;7.68;;;2.03;;
19879;SDS011;10102;50.828;4.416;2023-07-13T00:47:06;12.27;;;2.20;;
19879;SDS011;10102;50.828;4.416;2023-07-13T00:49:32;9.85;;;2.35;;
19879;SDS011;10102;50.828;4.416;2023-07-13T00:52:07;8.48;;;1.95;;
19879;SDS011;10102;50.828;4.416;2023-07-13T00:54:41;9.27;;;2.08;;
19879;SDS011;10102;50.828;4.416;2023-07-13T00:57:16;5.50;;;2.10;;
19879;SDS011;10102;50.828;4.416;2023-07-13T00:59:46;5.85;;;2.50;;
19879;SDS011;10102;50.828;4.416;2023-07-13T01:02:14;13.48;;;3.10;;
19879;SDS011;10102;50.828;4.416;2023-07-13T01:04:41;10.73;;;2.13;;
19879;SDS011;10102;50.828;4.416;2023-07-13T01:07:09;5.50;;;1.83;;
19879;SDS011;10102;50.828;4.416;2023-07-13T01:09:35;7.13;;;2.22;;
19879;SDS011;10102;50.828;4.416;2023-07-13T01:12:01;10.48;;;2.25;;
19879;SDS011;10102;50.828;4.416;2023-07-13T01:14:28;10.05;;;2.22;;
19879;SDS011;10102;50.828;4.416;2023-07-13T01:16:54;11.85;;;2.60;;
19879;SDS011;10102;50.828;4.416;2023-07-13T01:19:32;5.57;;;2.03;;
19879;SDS011;10102;50.828;4.416;2023-07-13T01:22:01;17.70;;;2.78;;
19879;SDS011;10102;50.828;4.416;2023-07-13T01:24:34;11.77;;;2.63;;
19879;SDS011;10102;50.828;4.416;2023-07-13T01:27:04;8.63;;;2.15;;
19879;SDS011;10102;50.828;4.416;2023-07-13T01:29:32;9.18;;;2.30;;
19879;SDS011;10102;50.828;4.416;2023-07-13T01:31:58;10.85;;;2.17;;
19879;SDS011;10102;50.828;4.416;2023-07-13T01:34:26;11.73;;;2.22;;
19879;SDS011;10102;50.828;4.416;2023-07-13T01:36:52;7.75;;;2.50;;
19879;SDS011;10102;50.828;4.416;2023-07-13T01:39:20;6.53;;;2.28;;
19879;SDS011;10102;50.828;4.416;2023-07-13T01:41:47;9.10;;;2.08;;
19879;SDS011;10102;50.828;4.416;2023-07-13T01:44:13;5.20;;;1.90;;
19879;SDS011;10102;50.828;4.416;2023-07-13T01:46:39;12.70;;;2.50;;
19879;SDS011;10102;50.828;4.416;2023-07-13T01:49:04;9.95;;;2.08;;
19879;SDS011;10102;50.828;4.416;2023-07-13T01:51:30;8.68;;;2.15;;
19879;SDS011;10102;50.828;4.416;2023-07-13T01:53:56;10.50;;;2.15;;
19879;SDS011;10102;50.828;4.416;2023-07-13T01:56:22;8.65;;;2.40;;
19879;SDS011;10102;50.828;4.416;2023-07-13T01:58:47;8.77;;;2.42;;
19879;SDS011;10102;50.828;4.416;2023-07-13T02:01:13;10.63;;;2.28;;
19879;SDS011;10102;50.828;4.416;2023-07-13T02:03:39;10.23;;;2.30;;
19879;SDS011;10102;50.828;4.416;2023-07-13T02:06:05;9.65;;;3.08;;
19879;SDS011;10102;50.828;4.416;2023-07-13T02:08:32;8.82;;;2.13;;
19879;SDS011;10102;50.828;4.416;2023-07-13T02:10:58;7.90;;;2.60;;
19879;SDS011;10102;50.828;4.416;2023-07-13T02:13:24;12.93;;;2.33;;
19879;SDS011;10102;50.828;4.416;2023-07-13T02:15:50;11.30;;;2.78;;
19879;SDS011;10102;50.828;4.416;2023-07-13T02:18:16;17.75;;;4.32;;
19879;SDS011;10102;50.828;4.416;2023-07-13T02:20:43;11.00;;;2.78;;
19879;SDS011;10102;50.828;4.416;2023-07-13T02:23:09;7.85;;;2.88;;
19879;SDS011;10102;50.828;4.416;2023-07-13T02:25:34;9.15;;;2.13;;
19879;SDS011;10102;50.828;4.416;2023-07-13T02:28:00;9.13;;;2.40;;
19879;SDS011;10102;50.828;4.416;2023-07-13T02:30:26;9.75;;;2.17;;
19879;SDS011;10102;50.828;4.416;2023-07-13T02:32:55;13.63;;;2.42;;
19879;SDS011;10102;50.828;4.416;2023-07-13T02:35:21;9.80;;;2.58;;
19879;SDS011;10102;50.828;4.416;2023-07-13T02:37:47;14.32;;;2.95;;
19879;SDS011;10102;50.828;4.416;2023-07-13T02:40:12;12.85;;;2.83;;
19879;SDS011;10102;50.828;4.416;2023-07-13T02:42:38;11.32;;;3.03;;
19879;SDS011;10102;50.828;4.416;2023-07-13T02:45:04;10.38;;;2.65;;
19879;SDS011;10102;50.828;4.416;2023-07-13T02:47:32;12.38;;;2.45;;
19879;SDS011;10102;50.828;4.416;2023-07-13T02:49:58;10.73;;;2.50;;
19879;SDS011;10102;50.828;4.416;2023-07-13T02:52:24;12.88;;;2.55;;
19879;SDS011;10102;50.828;4.416;2023-07-13T02:54:50;13.68;;;3.00;;
19879;SDS011;10102;50.828;4.416;2023-07-13T02:57:16;8.57;;;2.97;;
19879;SDS011;10102;50.828;4.416;2023-07-13T02:59:42;13.30;;;3.38;;
19879;SDS011;10102;50.828;4.416;2023-07-13T03:02:08;9.07;;;2.25;;
19879;SDS011;10102;50.828;4.416;2023-07-13T03:04:35;12.52;;;2.95;;
19879;SDS011;10102;50.828;4.416;2023-07-13T03:07:02;12.55;;;3.00;;
19879;SDS011;10102;50.828;4.416;2023-07-13T03:09:28;14.10;;;2.95;;
19879;SDS011;10102;50.828;4.416;2023-07-13T03:11:54;11.05;;;2.97;;
19879;SDS011;10102;50.828;4.416;2023-07-13T03:14:21;9.95;;;2.60;;
19879;SDS011;10102;50.828;4.416;2023-07-13T03:16:47;16.27;;;3.03;;
19879;SDS011;10102;50.828;4.416;2023-07-13T03:19:13;12.60;;;2.85;;
19879;SDS011;10102;50.828;4.416;2023-07-13T03:21:39;7.95;;;2.70;;
19879;SDS011;10102;50.828;4.416;2023-07-13T03:24:05;13.70;;;3.03;;
19879;SDS011;10102;50.828;4.416;2023-07-13T03:26:31;21.67;;;3.55;;
19879;SDS011;10102;50.828;4.416;2023-07-13T03:28:56;7.07;;;2.22;;
19879;SDS011;10102;50.828;4.416;2023-07-13T03:31:24;13.80;;;2.63;;
19879;SDS011;10102;50.828;4.416;2023-07-13T03:33:53;8.82;;;2.85;;
19879;SDS011;10102;50.828;4.416;2023-07-13T03:36:21;22.02;;;3.15;;
19879;SDS011;10102;50.828;4.416;2023-07-13T03:38:50;12.07;;;3.03;;
19879;SDS011;10102;50.828;4.416;2023-07-13T03:41:17;10.73;;;2.80;;
19879;SDS011;10102;50.828;4.416;2023-07-13T03:43:44;14.35;;;3.20;;
19879;SDS011;10102;50.828;4.416;2023-07-13T03:46:10;10.70;;;2.92;;
19879;SDS011;10102;50.828;4.416;2023-07-13T03:48:35;13.20;;;2.63;;
19879;SDS011;10102;50.828;4.416;2023-07-13T03:51:01;13.48;;;3.20;;
19879;SDS011;10102;50.828;4.416;2023-07-13T03:53:27;12.38;;;3.17;;
19879;SDS011;10102;50.828;4.416;2023-07-13T03:55:53;19.65;;;3.80;;
19879;SDS011;10102;50.828;4.416;2023-07-13T04:00:58;15.38;;;3.42;;
19879;SDS011;10102;50.828;4.416;2023-07-13T04:03:24;11.40;;;3.33;;
19879;SDS011;10102;50.828;4.416;2023-07-13T04:05:50;17.08;;;3.33;;
19879;SDS011;10102;50.828;4.416;2023-07-13T04:08:16;16.90;;;3.05;;
19879;SDS011;10102;50.828;4.416;2023-07-13T04:10:42;12.60;;;2.80;;
19879;SDS011;10102;50.828;4.416;2023-07-13T04:13:08;15.07;;;3.08;;
19879;SDS011;10102;50.828;4.416;2023-07-13T04:15:34;18.05;;;3.92;;
19879;SDS011;10102;50.828;4.416;2023-07-13T04:17:59;10.60;;;3.20;;
19879;SDS011;10102;50.828;4.416;2023-07-13T04:20:25;11.65;;;3.40;;
19879;SDS011;10102;50.828;4.416;2023-07-13T04:22:51;11.60;;;2.78;;
19879;SDS011;10102;50.828;4.416;2023-07-13T04:25:18;12.13;;;3.45;;
19879;SDS011;10102;50.828;4.416;2023-07-13T04:27:45;13.65;;;3.05;;
19879;SDS011;10102;50.828;4.416;2023-07-13T04:30:11;16.90;;;3.10;;
19879;SDS011;10102;50.828;4.416;2023-07-13T04:32:36;16.52;;;3.33;;
19879;SDS011;10102;50.828;4.416;2023-07-13T04:35:02;10.95;;;3.28;;
19879;SDS011;10102;50.828;4.416;2023-07-13T04:37:29;17.02;;;3.40;;
19879;SDS011;10102;50.828;4.416;2023-07-13T04:39:55;17.05;;;3.45;;
19879;SDS011;10102;50.828;4.416;2023-07-13T04:42:20;15.73;;;2.88;;
19879;SDS011;10102;50.828;4.416;2023-07-13T04:44:47;21.27;;;3.10;;
19879;SDS011;10102;50.828;4.416;2023-07-13T04:47:14;15.57;;;3.17;;
19879;SDS011;10102;50.828;4.416;2023-07-13T04:49:39;12.82;;;3.40;;
19879;SDS011;10102;50.828;4.416;2023-07-13T04:52:06;17.17;;;3.28;;
19879;SDS011;10102;50.828;4.416;2023-07-13T04:54:33;14.20;;;3.10;;
19879;SDS011;10102;50.828;4.416;2023-07-13T04:56:59;11.27;;;2.85;;
19879;SDS011;10102;50.828;4.416;2023-07-13T04:59:25;12.20;;;3.60;;
19879;SDS011;10102;50.828;4.416;2023-07-13T05:01:51;16.65;;;3.50;;
19879;SDS011;10102;50.828;4.416;2023-07-13T05:04:17;19.60;;;3.25;;
19879;SDS011;10102;50.828;4.416;2023-07-13T05:06:42;11.50;;;2.70;;
19879;SDS011;10102;50.828;4.416;2023-07-13T05:09:09;15.90;;;3.25;;
19879;SDS011;10102;50.828;4.416;2023-07-13T05:11:34;12.20;;;3.15;;
19879;SDS011;10102;50.828;4.416;2023-07-13T05:14:00;14.18;;;3.20;;
19879;SDS011;10102;50.828;4.416;2023-07-13T05:16:26;22.50;;;3.40;;
19879;SDS011;10102;50.828;4.416;2023-07-13T05:18:54;13.40;;;3.70;;
19879;SDS011;10102;50.828;4.416;2023-07-13T05:21:20;18.17;;;3.83;;
19879;SDS011;10102;50.828;4.416;2023-07-13T05:23:47;14.73;;;3.33;;
19879;SDS011;10102;50.828;4.416;2023-07-13T05:26:12;14.93;;;3.35;;
19879;SDS011;10102;50.828;4.416;2023-07-13T05:28:38;11.75;;;3.30;;
19879;SDS011;10102;50.828;4.416;2023-07-13T05:31:04;18.35;;;3.35;;
19879;SDS011;10102;50.828;4.416;2023-07-13T05:33:32;17.85;;;3.75;;
19879;SDS011;10102;50.828;4.416;2023-07-13T05:35:58;11.88;;;3.08;;
19879;SDS011;10102;50.828;4.416;2023-07-13T05:38:25;18.67;;;4.10;;
19879;SDS011;10102;50.828;4.416;2023-07-13T05:40:52;12.02;;;3.20;;
19879;SDS011;10102;50.828;4.416;2023-07-13T05:43:20;9.35;;;2.88;;
19879;SDS011;10102;50.828;4.416;2023-07-13T05:45:46;9.90;;;3.47;;
19879;SDS011;10102;50.828;4.416;2023-07-13T05:48:12;17.52;;;4.18;;
19879;SDS011;10102;50.828;4.416;2023-07-13T05:50:38;15.73;;;3.50;;
19879;SDS011;10102;50.828;4.416;2023-07-13T05:53:06;14.15;;;3.50;;
19879;SDS011;10102;50.828;4.416;2023-07-13T05:55:32;14.82;;;3.35;;
19879;SDS011;10102;50.828;4.416;2023-07-13T05:57:58;17.05;;;3.03;;
19879;SDS011;10102;50.828;4.416;2023-07-13T06:03:47;16.98;;;3.15;;
19879;SDS011;10102;50.828;4.416;2023-07-13T06:06:13;16.52;;;3.35;;
19879;SDS011;10102;50.828;4.416;2023-07-13T06:08:41;15.57;;;3.45;;
19879;SDS011;10102;50.828;4.416;2023-07-13T06:11:09;21.88;;;4.00;;
19879;SDS011;10102;50.828;4.416;2023-07-13T06:13:39;20.70;;;3.70;;
19879;SDS011;10102;50.828;4.416;2023-07-13T06:16:04;14.45;;;3.80;;
19879;SDS011;10102;50.828;4.416;2023-07-13T06:18:34;14.98;;;3.50;;
19879;SDS011;10102;50.828;4.416;2023-07-13T06:21:01;15.90;;;2.67;;
19879;SDS011;10102;50.828;4.416;2023-07-13T06:23:33;10.25;;;3.10;;
19879;SDS011;10102;50.828;4.416;2023-07-13T06:26:00;19.52;;;3.45;;
19879;SDS011;10102;50.828;4.416;2023-07-13T06:28:26;18.95;;;3.83;;
19879;SDS011;10102;50.828;4.416;2023-07-13T06:34:13;21.45;;;3.50;;
19879;SDS011;10102;50.828;4.416;2023-07-13T06:36:39;17.27;;;4.20;;
19879;SDS011;10102;50.828;4.416;2023-07-13T06:39:06;7.57;;;3.10;;
19879;SDS011;10102;50.828;4.416;2023-07-13T06:41:32;19.10;;;3.28;;
19879;SDS011;10102;50.828;4.416;2023-07-13T06:43:59;14.38;;;3.45;;
19879;SDS011;10102;50.828;4.416;2023-07-13T06:46:24;19.42;;;3.75;;
19879;SDS011;10102;50.828;4.416;2023-07-13T06:48:50;21.85;;;3.95;;
19879;SDS011;10102;50.828;4.416;2023-07-13T06:51:16;16.50;;;3.40;;
19879;SDS011;10102;50.828;4.416;2023-07-13T06:53:42;12.48;;;3.50;;
19879;SDS011;10102;50.828;4.416;2023-07-13T06:56:09;14.95;;;3.65;;
19879;SDS011;10102;50.828;4.416;2023-07-13T06:58:35;12.18;;;3.33;;
19879;SDS011;10102;50.828;4.416;2023-07-13T07:01:01;10.32;;;2.70;;
19879;SDS011;10102;50.828;4.416;2023-07-13T07:03:27;16.45;;;4.32;;
19879;SDS011;10102;50.828;4.416;2023-07-13T07:05:53;16.88;;;3.20;;
19879;SDS011;10102;50.828;4.416;2023-07-13T07:08:19;15.50;;;3.15;;
19879;SDS011;10102;50.828;4.416;2023-07-13T07:10:45;9.05;;;3.28;;
19879;SDS011;10102;50.828;4.416;2023-07-13T07:13:11;16.55;;;3.67;;
19879;SDS011;10102;50.828;4.416;2023-07-13T07:15:37;19.17;;;3.72;;
19879;SDS011;10102;50.828;4.416;2023-07-13T07:18:03;15.90;;;3.30;;
19879;SDS011;10102;50.828;4.416;2023-07-13T07:20:28;13.48;;;3.28;;
19879;SDS011;10102;50.828;4.416;2023-07-13T07:22:55;21.75;;;3.08;;
19879;SDS011;10102;50.828;4.416;2023-07-13T07:25:21;13.65;;;3.20;;
19879;SDS011;10102;50.828;4.416;2023-07-13T07:27:47;18.15;;;3.03;;
19879;SDS011;10102;50.828;4.416;2023-07-13T07:30:12;10.65;;;3.33;;
19879;SDS011;10102;50.828;4.416;2023-07-13T07:32:38;10.73;;;2.88;;
19879;SDS011;10102;50.828;4.416;2023-07-13T07:35:04;15.50;;;3.78;;
19879;SDS011;10102;50.828;4.416;2023-07-13T07:37:30;13.90;;;3.50;;
19879;SDS011;10102;50.828;4.416;2023-07-13T07:39:56;12.93;;;3.67;;
19879;SDS011;10102;50.828;4.416;2023-07-13T07:42:21;22.52;;;3.58;;
19879;SDS011;10102;50.828;4.416;2023-07-13T07:44:47;9.60;;;2.95;;
19879;SDS011;10102;50.828;4.416;2023-07-13T07:47:12;12.60;;;3.28;;
19879;SDS011;10102;50.828;4.416;2023-07-13T07:49:38;14.48;;;3.33;;
19879;SDS011;10102;50.828;4.416;2023-07-13T07:52:04;13.05;;;2.60;;
19879;SDS011;10102;50.828;4.416;2023-07-13T07:54:30;15.80;;;2.85;;
19879;SDS011;10102;50.828;4.416;2023-07-13T07:56:55;17.75;;;3.42;;
19879;SDS011;10102;50.828;4.416;2023-07-13T07:59:21;6.28;;;2.80;;
19879;SDS011;10102;50.828;4.416;2023-07-13T08:01:47;16.17;;;3.47;;
19879;SDS011;10102;50.828;4.416;2023-07-13T08:04:15;15.70;;;3.10;;
19879;SDS011;10102;50.828;4.416;2023-07-13T08:06:41;13.88;;;3.33;;
19879;SDS011;10102;50.828;4.416;2023-07-13T08:09:07;8.55;;;3.10;;
19879;SDS011;10102;50.828;4.416;2023-07-13T08:11:33;13.32;;;3.03;;
19879;SDS011;10102;50.828;4.416;2023-07-13T08:17:21;8.45;;;2.67;;
19879;SDS011;10102;50.828;4.416;2023-07-13T08:19:46;7.55;;;2.92;;
19879;SDS011;10102;50.828;4.416;2023-07-13T08:22:12;14.13;;;2.50;;
19879;SDS011;10102;50.828;4.416;2023-07-13T08:24:38;8.77;;;2.83;;
19879;SDS011;10102;50.828;4.416;2023-07-13T08:27:03;11.80;;;3.13;;
19879;SDS011;10102;50.828;4.416;2023-07-13T08:29:29;14.52;;;3.65;;
19879;SDS011;10102;50.828;4.416;2023-07-13T08:31:59;10.20;;;3.25;;
19879;SDS011;10102;50.828;4.416;2023-07-13T08:34:25;11.20;;;3.78;;
19879;SDS011;10102;50.828;4.416;2023-07-13T08:36:51;16.35;;;3.80;;
19879;SDS011;10102;50.828;4.416;2023-07-13T08:39:17;8.20;;;2.95;;
19879;SDS011;10102;50.828;4.416;2023-07-13T08:41:44;9.45;;;3.25;;
19879;SDS011;10102;50.828;4.416;2023-07-13T08:44:30;17.02;;;2.83;;
19879;SDS011;10102;50.828;4.416;2023-07-13T08:47:39;5.65;;;2.55;;
19879;SDS011;10102;50.828;4.416;2023-07-13T08:50:14;11.10;;;3.08;;
19879;SDS011;10102;50.828;4.416;2023-07-13T08:52:41;13.23;;;3.00;;
19879;SDS011;10102;50.828;4.416;2023-07-13T08:55:13;13.73;;;3.08;;
19879;SDS011;10102;50.828;4.416;2023-07-13T08:57:43;11.93;;;2.72;;
19879;SDS011;10102;50.828;4.416;2023-07-13T09:00:12;12.27;;;3.00;;
19879;SDS011;10102;50.828;4.416;2023-07-13T09:02:53;11.00;;;2.38;;
19879;SDS011;10102;50.828;4.416;2023-07-13T09:05:36;10.85;;;2.85;;
19879;SDS011;10102;50.828;4.416;2023-07-13T09:11:50;9.40;;;3.30;;
19879;SDS011;10102;50.828;4.416;2023-07-13T09:17:01;8.23;;;2.50;;
19879;SDS011;10102;50.828;4.416;2023-07-13T09:19:30;8.65;;;2.30;;
19879;SDS011;10102;50.828;4.416;2023-07-13T09:21:58;10.27;;;3.08;;
19879;SDS011;10102;50.828;4.416;2023-07-13T09:24:35;7.40;;;2.50;;
19879;SDS011;10102;50.828;4.416;2023-07-13T09:27:03;11.48;;;2.70;;
19879;SDS011;10102;50.828;4.416;2023-07-13T09:29:43;8.82;;;2.47;;
19879;SDS011;10102;50.828;4.416;2023-07-13T09:32:14;6.93;;;2.13;;
19879;SDS011;10102;50.828;4.416;2023-07-13T09:34:49;9.15;;;2.53;;
19879;SDS011;10102;50.828;4.416;2023-07-13T09:37:16;8.65;;;2.50;;
19879;SDS011;10102;50.828;4.416;2023-07-13T09:39:43;9.40;;;2.97;;
19879;SDS011;10102;50.828;4.416;2023-07-13T09:44:37;9.07;;;2.58;;
19879;SDS011;10102;50.828;4.416;2023-07-13T09:47:21;10.23;;;2.50;;
19879;SDS011;10102;50.828;4.416;2023-07-13T09:50:05;15.15;;;3.30;;
19879;SDS011;10102;50.828;4.416;2023-07-13T09:52:44;9.30;;;2.60;;
19879;SDS011;10102;50.828;4.416;2023-07-13T09:55:26;10.25;;;2.60;;
19879;SDS011;10102;50.828;4.416;2023-07-13T09:57:55;14.95;;;2.70;;
19879;SDS011;10102;50.828;4.416;2023-07-13T10:00:28;11.32;;;2.60;;
19879;SDS011;10102;50.828;4.416;2023-07-13T10:03:05;9.85;;;2.35;;
19879;SDS011;10102;50.828;4.416;2023-07-13T10:05:41;6.35;;;2.03;;
19879;SDS011;10102;50.828;4.416;2023-07-13T10:08:18;9.25;;;2.50;;
19879;SDS011;10102;50.828;4.416;2023-07-13T10:14:00;7.00;;;2.30;;
19879;SDS011;10102;50.828;4.416;2023-07-13T10:16:28;5.65;;;2.80;;
19879;SDS011;10102;50.828;4.416;2023-07-13T10:18:58;9.80;;;2.25;;
19879;SDS011;10102;50.828;4.416;2023-07-13T10:21:54;7.68;;;2.15;;
19879;SDS011;10102;50.828;4.416;2023-07-13T10:24:24;7.82;;;2.28;;
19879;SDS011;10102;50.828;4.416;2023-07-13T10:27:05;11.38;;;2.22;;
19879;SDS011;10102;50.828;4.416;2023-07-13T10:29:43;10.75;;;2.30;;
19879;SDS011;10102;50.828;4.416;2023-07-13T10:32:19;8.50;;;2.58;;
19879;SDS011;10102;50.828;4.416;2023-07-13T10:34:48;7.72;;;2.20;;
19879;SDS011;10102;50.828;4.416;2023-07-13T10:37:20;11.68;;;2.50;;
19879;SDS011;10102;50.828;4.416;2023-07-13T10:39:50;6.65;;;2.30;;
19879;SDS011;10102;50.828;4.416;2023-07-13T10:42:26;7.78;;;2.05;;
19879;SDS011;10102;50.828;4.416;2023-07-13T10:45:00;9.25;;;2.92;;
19879;SDS011;10102;50.828;4.416;2023-07-13T10:47:26;7.07;;;1.95;;
19879;SDS011;10102;50.828;4.416;2023-07-13T10:49:53;5.40;;;1.90;;
19879;SDS011;10102;50.828;4.416;2023-07-13T10:55:30;8.50;;;2.20;;
19879;SDS011;10102;50.828;4.416;2023-07-13T10:58:03;7.40;;;2.20;;
19879;SDS011;10102;50.828;4.416;2023-07-13T11:00:56;7.18;;;1.95;;
19879;SDS011;10102;50.828;4.416;2023-07-13T11:13:59;7.03;;;1.55;;
19879;SDS011;10102;50.828;4.416;2023-07-13T11:16:43;9.23;;;2.42;;
19879;SDS011;10102;50.828;4.416;2023-07-13T11:27:52;5.85;;;2.08;;
19879;SDS011;10102;50.828;4.416;2023-07-13T11:30:41;7.75;;;1.88;;
19879;SDS011;10102;50.828;4.416;2023-07-13T11:33:23;5.43;;;2.15;;
19879;SDS011;10102;50.828;4.416;2023-07-13T11:38:39;7.15;;;1.80;;
19879;SDS011;10102;50.828;4.416;2023-07-13T11:41:42;5.25;;;1.95;;
19879;SDS011;10102;50.828;4.416;2023-07-13T11:44:16;7.75;;;2.50;;
19879;SDS011;10102;50.828;4.416;2023-07-13T11:47:27;6.63;;;1.55;;
19879;SDS011;10102;50.828;4.416;2023-07-13T11:49:43;5.22;;;1.90;;
19879;SDS011;10102;50.828;4.416;2023-07-13T11:55:03;3.22;;;1.58;;
19879;SDS011;10102;50.828;4.416;2023-07-13T11:57:40;9.93;;;2.55;;
19879;SDS011;10102;50.828;4.416;2023-07-13T12:00:15;9.38;;;2.40;;
19879;SDS011;10102;50.828;4.416;2023-07-13T12:02:45;11.75;;;2.00;;
19879;SDS011;10102;50.828;4.416;2023-07-13T12:05:15;8.80;;;2.85;;
19879;SDS011;10102;50.828;4.416;2023-07-13T12:07:50;7.55;;;1.88;;
19879;SDS011;10102;50.828;4.416;2023-07-13T12:12:58;5.85;;;1.92;;
19879;SDS011;10102;50.828;4.416;2023-07-13T12:15:32;3.00;;;1.77;;
19879;SDS011;10102;50.828;4.416;2023-07-13T12:18:00;7.88;;;2.38;;
19879;SDS011;10102;50.828;4.416;2023-07-13T12:20:27;11.38;;;2.15;;
19879;SDS011;10102;50.828;4.416;2023-07-13T12:23:00;5.82;;;1.90;;
19879;SDS011;10102;50.828;4.416;2023-07-13T12:25:27;3.90;;;1.70;;
19879;SDS011;10102;50.828;4.416;2023-07-13T12:27:53;5.15;;;1.92;;
19879;SDS011;10102;50.828;4.416;2023-07-13T12:32:57;4.32;;;1.55;;
19879;SDS011;10102;50.828;4.416;2023-07-13T12:35:40;4.90;;;1.45;;
19879;SDS011;10102;50.828;4.416;2023-07-13T12:38:10;2.35;;;1.30;;
19879;SDS011;10102;50.828;4.416;2023-07-13T12:40:36;2.88;;;1.30;;
19879;SDS011;10102;50.828;4.416;2023-07-13T12:46:21;6.18;;;1.70;;
19879;SDS011;10102;50.828;4.416;2023-07-13T12:48:51;3.88;;;1.85;;
19879;SDS011;10102;50.828;4.416;2023-07-13T12:51:21;2.92;;;1.77;;
19879;SDS011;10102;50.828;4.416;2023-07-13T12:53:50;5.03;;;2.20;;
19879;SDS011;10102;50.828;4.416;2023-07-13T12:56:24;6.45;;;2.53;;
19879;SDS011;10102;50.828;4.416;2023-07-13T12:59:03;7.05;;;2.60;;
19879;SDS011;10102;50.828;4.416;2023-07-13T13:01:32;6.35;;;2.72;;
19879;SDS011;10102;50.828;4.416;2023-07-13T13:04:01;7.68;;;2.90;;
19879;SDS011;10102;50.828;4.416;2023-07-13T13:06:33;6.65;;;2.50;;
19879;SDS011;10102;50.828;4.416;2023-07-13T13:09:01;4.43;;;2.20;;
19879;SDS011;10102;50.828;4.416;2023-07-13T13:11:28;5.45;;;2.03;;
19879;SDS011;10102;50.828;4.416;2023-07-13T13:13:56;5.13;;;2.20;;
19879;SDS011;10102;50.828;4.416;2023-07-13T13:18:54;5.28;;;1.80;;
19879;SDS011;10102;50.828;4.416;2023-07-13T13:21:22;2.60;;;1.52;;
19879;SDS011;10102;50.828;4.416;2023-07-13T13:23:49;5.78;;;1.65;;
19879;SDS011;10102;50.828;4.416;2023-07-13T13:26:16;3.08;;;1.52;;
19879;SDS011;10102;50.828;4.416;2023-07-13T13:28:42;4.15;;;1.70;;
19879;SDS011;10102;50.828;4.416;2023-07-13T13:31:09;7.53;;;1.45;;
19879;SDS011;10102;50.828;4.416;2023-07-13T13:33:40;3.13;;;1.67;;
19879;SDS011;10102;50.828;4.416;2023-07-13T13:36:20;8.15;;;1.73;;
19879;SDS011;10102;50.828;4.416;2023-07-13T13:38:49;7.35;;;1.90;;
19879;SDS011;10102;50.828;4.416;2023-07-13T13:41:15;4.90;;;1.50;;
19879;SDS011;10102;50.828;4.416;2023-07-13T13:43:42;5.40;;;1.48;;
19879;SDS011;10102;50.828;4.416;2023-07-13T13:46:16;3.28;;;1.38;;
19879;SDS011;10102;50.828;4.416;2023-07-13T13:48:44;5.60;;;1.70;;
19879;SDS011;10102;50.828;4.416;2023-07-13T13:51:15;5.32;;;1.60;;
19879;SDS011;10102;50.828;4.416;2023-07-13T13:53:46;3.20;;;1.58;;
19879;SDS011;10102;50.828;4.416;2023-07-13T13:56:13;9.98;;;1.65;;
19879;SDS011;10102;50.828;4.416;2023-07-13T13:58:39;5.15;;;1.88;;
19879;SDS011;10102;50.828;4.416;2023-07-13T14:01:08;3.47;;;1.52;;
19879;SDS011;10102;50.828;4.416;2023-07-13T14:03:38;6.13;;;1.60;;
19879;SDS011;10102;50.828;4.416;2023-07-13T14:06:03;4.57;;;1.50;;
19879;SDS011;10102;50.828;4.416;2023-07-13T14:08:29;2.50;;;1.63;;
19879;SDS011;10102;50.828;4.416;2023-07-13T14:10:55;6.05;;;1.77;;
19879;SDS011;10102;50.828;4.416;2023-07-13T14:13:27;3.60;;;1.45;;
19879;SDS011;10102;50.828;4.416;2023-07-13T14:15:56;6.90;;;2.00;;
19879;SDS011;10102;50.828;4.416;2023-07-13T14:18:22;3.95;;;1.67;;
19879;SDS011;10102;50.828;4.416;2023-07-13T14:20:48;5.28;;;2.00;;
19879;SDS011;10102;50.828;4.416;2023-07-13T14:23:17;3.22;;;1.85;;
19879;SDS011;10102;50.828;4.416;2023-07-13T14:25:44;6.50;;;1.67;;
19879;SDS011;10102;50.828;4.416;2023-07-13T14:28:24;6.32;;;2.17;;
19879;SDS011;10102;50.828;4.416;2023-07-13T14:30:52;4.78;;;1.90;;
19879;SDS011;10102;50.828;4.416;2023-07-13T14:33:19;6.78;;;1.67;;
19879;SDS011;10102;50.828;4.416;2023-07-13T14:35:45;4.15;;;2.25;;
19879;SDS011;10102;50.828;4.416;2023-07-13T14:38:12;6.30;;;1.85;;
19879;SDS011;10102;50.828;4.416;2023-07-13T14:40:43;7.43;;;2.13;;
19879;SDS011;10102;50.828;4.416;2023-07-13T14:43:12;4.30;;;1.85;;
19879;SDS011;10102;50.828;4.416;2023-07-13T14:45:43;3.63;;;1.65;;
19879;SDS011;10102;50.828;4.416;2023-07-13T14:48:15;3.72;;;1.80;;
19879;SDS011;10102;50.828;4.416;2023-07-13T14:50:57;6.20;;;1.50;;
19879;SDS011;10102;50.828;4.416;2023-07-13T14:53:25;7.95;;;1.60;;
19879;SDS011;10102;50.828;4.416;2023-07-13T14:55:54;6.10;;;1.92;;
19879;SDS011;10102;50.828;4.416;2023-07-13T14:58:20;3.03;;;1.83;;
19879;SDS011;10102;50.828;4.416;2023-07-13T15:00:46;2.28;;;1.73;;
19879;SDS011;10102;50.828;4.416;2023-07-13T15:03:16;2.53;;;1.45;;
19879;SDS011;10102;50.828;4.416;2023-07-13T15:05:49;3.85;;;1.80;;
19879;SDS011;10102;50.828;4.416;2023-07-13T15:08:16;5.95;;;2.13;;
19879;SDS011;10102;50.828;4.416;2023-07-13T15:10:42;7.85;;;1.67;;
19879;SDS011;10102;50.828;4.416;2023-07-13T15:13:18;2.90;;;1.33;;
19879;SDS011;10102;50.828;4.416;2023-07-13T15:15:49;3.08;;;1.70;;
19879;SDS011;10102;50.828;4.416;2023-07-13T15:18:18;3.10;;;2.05;;
19879;SDS011;10102;50.828;4.416;2023-07-13T15:20:47;3.35;;;1.20;;
19879;SDS011;10102;50.828;4.416;2023-07-13T15:23:14;8.20;;;1.67;;
19879;SDS011;10102;50.828;4.416;2023-07-13T15:25:42;3.90;;;1.63;;
19879;SDS011;10102;50.828;4.416;2023-07-13T15:28:08;4.55;;;1.73;;
19879;SDS011;10102;50.828;4.416;2023-07-13T15:30:36;3.58;;;1.83;;
19879;SDS011;10102;50.828;4.416;2023-07-13T15:33:10;4.15;;;1.50;;
19879;SDS011;10102;50.828;4.416;2023-07-13T15:35:42;3.38;;;1.70;;
19879;SDS011;10102;50.828;4.416;2023-07-13T15:38:15;2.75;;;1.30;;
19879;SDS011;10102;50.828;4.416;2023-07-13T15:40:47;3.22;;;1.45;;
19879;SDS011;10102;50.828;4.416;2023-07-13T15:43:14;2.75;;;1.60;;
19879;SDS011;10102;50.828;4.416;2023-07-13T15:45:41;5.55;;;1.40;;
19879;SDS011;10102;50.828;4.416;2023-07-13T15:48:21;7.07;;;1.35;;
19879;SDS011;10102;50.828;4.416;2023-07-13T15:50:52;3.90;;;1.77;;
19879;SDS011;10102;50.828;4.416;2023-07-13T15:53:21;8.10;;;1.83;;